Time;durP1;ratioP1;P1;durP2;ratioP2;P2;SDS_P1;SDS_P2;PMS_P1;PMS_P2;Temp;Humidity;BMP_temperature;BMP_pressure;BME280_temperature;BME280_humidity;BME280_pressure;Samples;Min_cycle;Max_cycle;Signal;HPM_P1;HPM_P2
2023/08/26 00:01:52;;;;;;;1014.53;911.72;;;16.80;99.90;;;;;;5050109;28;20487;-89
2023/08/26 00:04:20;;;;;;;994.25;896.25;;;16.80;99.90;;;;;;5034330;28;20236;-88
2023/08/26 00:06:46;;;;;;;1014.08;910.38;;;16.70;99.90;;;;;;5048634;28;20144;-87
2023/08/26 00:09:11;;;;;;;969.08;873.83;;;16.70;99.90;;;;;;5032931;28;20128;-88
2023/08/26 00:11:43;;;;;;;1003.92;901.83;;;16.60;99.90;;;;;;5049981;28;20063;-88
2023/08/26 00:14:09;;;;;;;999.35;898.70;;;16.50;99.90;;;;;;5032860;28;20045;-88
2023/08/26 00:16:34;;;;;;;987.97;888.85;;;16.50;99.90;;;;;;5050200;28;20041;-87
2023/08/26 00:19:01;;;;;;;1011.30;906.80;;;16.50;99.90;;;;;;5033241;28;20575;-88
2023/08/26 00:21:27;;;;;;;1025.72;921.17;;;16.40;99.90;;;;;;5050011;28;20123;-88
2023/08/26 00:23:53;;;;;;;990.30;891.15;;;16.40;99.90;;;;;;5049338;28;20059;-88
2023/08/26 00:26:18;;;;;;;1032.53;925.17;;;16.40;99.90;;;;;;5032983;28;20484;-88
2023/08/26 00:28:44;;;;;;;1035.40;928.03;;;16.40;99.90;;;;;;5029174;28;20448;-88
2023/08/26 00:31:11;;;;;;;1001.67;900.67;;;16.40;99.90;;;;;;5049307;28;20079;-88
2023/08/26 00:33:36;;;;;;;1003.03;902.03;;;16.40;99.90;;;;;;5049436;28;20515;-88
2023/08/26 00:36:02;;;;;;;1003.03;901.40;;;16.40;99.90;;;;;;5031567;28;20037;-88
2023/08/26 00:38:28;;;;;;;1000.80;899.90;;;16.40;99.90;;;;;;5049771;28;20113;-88
2023/08/26 00:41:00;;;;;;;1017.38;913.78;;;16.40;99.90;;;;;;5030950;28;20538;-88
2023/08/26 00:43:27;;;;;;;1029.72;922.47;;;16.40;99.90;;;;;;5032901;28;20077;-88
2023/08/26 00:45:53;;;;;;;1008.60;905.40;;;16.40;99.90;;;;;;5048901;28;20111;-88
2023/08/26 00:48:19;;;;;;;1015.90;911.80;;;16.40;99.90;;;;;;5048545;28;20638;-88
2023/08/26 00:50:48;;;;;;;1025.72;919.95;;;16.30;99.90;;;;;;5032082;28;20040;-88
2023/08/26 00:53:21;;;;;;;1000.88;900.38;;;16.30;99.90;;;;;;5049379;28;20041;-88
2023/08/26 00:55:48;;;;;;;1038.13;927.60;;;16.30;99.90;;;;;;5047019;28;20060;-88
2023/08/26 00:58:15;;;;;;;1012.70;909.08;;;16.30;99.90;;;;;;5049480;28;20522;-88
2023/08/26 01:00:50;;;;;;;1041.13;930.95;;;16.20;99.90;;;;;;5048635;28;20095;-88
2023/08/26 01:03:16;;;;;;;1049.05;938.85;;;16.20;99.90;;;;;;5048707;28;20095;-88
2023/08/26 01:05:41;;;;;;;1016.22;913.05;;;16.20;99.90;;;;;;5031656;28;20051;-88
2023/08/26 01:08:08;;;;;;;1067.30;950.60;;;16.10;99.90;;;;;;5032424;28;20069;-88
2023/08/26 01:10:42;;;;;;;1045.50;932.83;;;16.10;99.90;;;;;;5047511;28;20082;-87
2023/08/26 01:13:14;;;;;;;1052.00;938.83;;;16.00;99.90;;;;;;5032427;28;20127;-88
2023/08/26 01:15:48;;;;;;;1010.95;907.90;;;16.00;99.90;;;;;;5031358;28;20037;-88
2023/08/26 01:18:15;;;;;;;1076.40;955.95;;;16.00;99.90;;;;;;5048342;28;20041;-88
2023/08/26 01:20:43;;;;;;;1017.75;913.13;;;15.90;99.90;;;;;;5048002;28;20167;-88
2023/08/26 01:23:41;;;;;;;1091.30;971.17;;;15.90;99.90;;;;;;5031642;28;20045;-88
2023/08/26 01:26:09;;;;;;;1052.43;941.50;;;15.90;99.90;;;;;;5031251;28;20096;-88
2023/08/26 01:28:35;;;;;;;1068.75;952.08;;;15.90;99.90;;;;;;5031928;28;20045;-88
2023/08/26 01:31:06;;;;;;;1035.03;925.83;;;15.80;99.90;;;;;;5030573;28;20564;-88
2023/08/26 01:33:53;;;;;;;1056.05;940.92;;;15.80;99.90;;;;;;5048881;28;20055;-88
2023/08/26 01:36:33;;;;;;;1077.00;958.65;;;15.80;99.90;;;;;;5031790;28;20049;-88
2023/08/26 01:38:59;;;;;;;1043.65;933.15;;;15.80;99.90;;;;;;5030535;28;20041;-88
2023/08/26 01:41:26;;;;;;;1051.25;937.75;;;15.80;99.90;;;;;;5047907;28;20049;-87
2023/08/26 01:43:53;;;;;;;1083.35;962.92;;;15.80;99.90;;;;;;5030969;28;20052;-88
2023/08/26 01:46:19;;;;;;;1058.65;945.78;;;15.80;99.90;;;;;;5030851;28;20438;-88
2023/08/26 01:48:48;;;;;;;1038.80;929.25;;;15.80;99.90;;;;;;5047492;28;20064;-88
2023/08/26 01:51:15;;;;;;;1049.25;936.17;;;15.80;99.90;;;;;;5030465;28;20052;-88
2023/08/26 01:53:41;;;;;;;1050.53;938.05;;;15.70;99.90;;;;;;5031082;28;20041;-88
2023/08/26 01:56:09;;;;;;;1061.95;948.70;;;15.70;99.90;;;;;;5047189;28;20044;-87
2023/08/26 01:58:34;;;;;;;1040.45;929.50;;;15.70;99.90;;;;;;5031075;28;20064;-88
2023/08/26 02:01:11;;;;;;;1048.15;935.72;;;15.70;99.90;;;;;;5064579;28;20404;-88
2023/08/26 02:03:39;;;;;;;1046.45;935.30;;;15.60;99.90;;;;;;5046615;28;20037;-88
2023/08/26 02:06:05;;;;;;;1089.05;968.97;;;15.60;99.90;;;;;;5046107;28;20041;-88
2023/08/26 02:08:31;;;;;;;1041.10;930.13;;;15.50;99.90;;;;;;5031394;28;20048;-88
2023/08/26 02:10:57;;;;;;;1062.45;947.00;;;15.50;99.90;;;;;;5029962;28;20049;-88
2023/08/26 02:13:24;;;;;;;1051.47;939.47;;;15.40;99.90;;;;;;5047578;28;20052;-88
2023/08/26 02:15:50;;;;;;;1082.85;958.53;;;15.40;99.90;;;;;;5018094;28;20136;-88
2023/08/26 02:18:16;;;;;;;1033.82;925.40;;;15.30;99.90;;;;;;5030563;28;20048;-88
2023/08/26 02:20:42;;;;;;;1041.55;930.10;;;15.30;99.90;;;;;;5029658;28;20044;-88
2023/08/26 02:23:11;;;;;;;1029.18;921.08;;;15.20;99.90;;;;;;5047428;28;20072;-88
2023/08/26 02:25:40;;;;;;;1052.07;938.67;;;15.20;99.90;;;;;;5029822;28;20076;-88
2023/08/26 02:28:07;;;;;;;1054.72;941.83;;;15.20;99.90;;;;;;5017645;28;20503;-87
2023/08/26 02:30:33;;;;;;;1036.78;926.80;;;15.10;99.90;;;;;;5047023;28;20103;-89
2023/08/26 02:33:00;;;;;;;1065.05;949.70;;;15.10;99.90;;;;;;5047179;28;20481;-87
2023/08/26 02:35:26;;;;;;;1061.00;944.78;;;15.10;99.90;;;;;;5046188;28;20044;-87
2023/08/26 02:37:51;;;;;;;1047.88;935.30;;;15.00;99.90;;;;;;5030085;28;20511;-88
2023/08/26 02:40:18;;;;;;;1061.93;947.90;;;15.00;99.90;;;;;;5045574;28;20037;-87
2023/08/26 02:42:44;;;;;;;1042.97;932.78;;;14.90;99.90;;;;;;5048307;28;20063;-88
2023/08/26 02:45:10;;;;;;;1051.68;940.95;;;14.90;99.90;;;;;;5030246;28;20471;-87
2023/08/26 02:47:36;;;;;;;1076.15;959.55;;;14.90;99.90;;;;;;5046247;28;20061;-88
2023/08/26 02:50:02;;;;;;;1057.63;944.00;;;14.90;99.90;;;;;;5046871;28;20487;-88
2023/08/26 02:52:28;;;;;;;1040.13;930.00;;;14.80;99.90;;;;;;5030480;28;20045;-88
2023/08/26 02:54:53;;;;;;;1059.93;945.13;;;14.80;99.90;;;;;;5028994;28;20086;-88
2023/08/26 02:57:20;;;;;;;1048.75;937.67;;;14.80;99.90;;;;;;5030691;28;20045;-88
2023/08/26 02:59:46;;;;;;;1040.18;929.38;;;14.80;99.90;;;;;;5029782;28;20094;-88
2023/08/26 03:02:12;;;;;;;1076.85;958.40;;;14.80;99.90;;;;;;5046467;28;20453;-88
2023/08/26 03:04:45;;;;;;;1035.78;927.55;;;14.70;99.90;;;;;;5045779;28;20531;-87
2023/08/26 03:07:11;;;;;;;1046.03;934.38;;;14.80;99.90;;;;;;5047060;28;20049;-87
2023/08/26 03:09:37;;;;;;;1099.53;975.38;;;14.70;99.90;;;;;;5028031;28;20376;-87
2023/08/26 03:12:03;;;;;;;1041.22;931.22;;;14.70;99.90;;;;;;5046955;28;20051;-88
2023/08/26 03:14:28;;;;;;;1036.32;925.17;;;14.60;99.90;;;;;;5046489;28;20053;-88
2023/08/26 03:16:54;;;;;;;1059.32;945.50;;;14.60;99.90;;;;;;5027822;28;20041;-88
2023/08/26 03:19:21;;;;;;;1034.82;925.95;;;14.60;99.90;;;;;;5029891;28;20075;-88
2023/08/26 03:21:47;;;;;;;1057.63;945.13;;;14.60;99.90;;;;;;5046358;28;20087;-88
2023/08/26 03:24:18;;;;;;;1038.88;929.15;;;14.60;99.90;;;;;;5045486;28;20347;-87
2023/08/26 03:26:44;;;;;;;1044.78;934.10;;;14.50;99.90;;;;;;5046062;28;20114;-88
2023/08/26 03:29:09;;;;;;;1071.30;955.03;;;14.50;99.90;;;;;;5046000;28;20430;-87
2023/08/26 03:31:35;;;;;;;1081.93;962.55;;;14.50;99.90;;;;;;5045088;28;20045;-87
2023/08/26 03:34:01;;;;;;;1068.90;951.72;;;14.40;99.90;;;;;;5029282;28;20041;-87
2023/08/26 03:36:28;;;;;;;1049.57;935.95;;;14.40;99.90;;;;;;5037875;28;20033;-88
2023/08/26 03:38:55;;;;;;;1055.28;940.53;;;14.30;99.90;;;;;;5041685;28;20065;-88
2023/08/26 03:41:20;;;;;;;1039.10;928.10;;;14.20;99.90;;;;;;5046141;28;20499;-88
2023/08/26 03:43:46;;;;;;;983.75;879.03;;;14.20;99.90;;;;;;5044747;28;20041;-87
2023/08/26 03:46:13;;;;;;;1081.78;961.60;;;14.20;99.90;;;;;;5046750;28;20044;-88
2023/08/26 03:48:39;;;;;;;1015.47;908.05;;;14.20;99.90;;;;;;5028835;28;20056;-87
2023/08/26 03:51:05;;;;;;;1104.68;969.47;;;14.10;99.90;;;;;;5042350;28;20045;-88
2023/08/26 03:53:32;;;;;;;1066.63;950.33;;;14.00;99.90;;;;;;5046570;28;20389;-88
2023/08/26 03:55:58;;;;;;;1081.25;958.60;;;14.00;99.90;;;;;;5028411;28;20044;-88
2023/08/26 03:58:24;;;;;;;1048.88;934.95;;;14.00;99.90;;;;;;5029057;28;20052;-88
2023/08/26 04:00:50;;;;;;;1128.43;980.90;;;14.00;99.90;;;;;;5045123;28;20049;-87
2023/08/26 04:03:16;;;;;;;1050.43;937.42;;;14.10;99.90;;;;;;5046056;28;20052;-88
2023/08/26 04:05:43;;;;;;;1076.30;958.90;;;14.10;99.90;;;;;;5028645;28;20041;-87
2023/08/26 04:08:08;;;;;;;1012.63;908.70;;;14.10;99.90;;;;;;5028752;28;20048;-87
2023/08/26 04:10:34;;;;;;;1128.05;981.30;;;14.10;99.90;;;;;;5028518;28;20047;-86
2023/08/26 04:13:16;;;;;;;1151.05;982.67;;;14.10;99.90;;;;;;5028049;28;20399;-87
2023/08/26 04:15:42;;;;;;;1009.38;905.08;;;14.10;99.90;;;;;;5044775;28;20132;-86
2023/08/26 04:18:08;;;;;;;1074.65;956.63;;;14.20;99.90;;;;;;5047316;28;20142;-87
2023/08/26 04:20:33;;;;;;;1120.18;982.58;;;14.20;99.90;;;;;;5045980;28;20116;-87
2023/08/26 04:22:59;;;;;;;1153.13;990.75;;;14.20;99.90;;;;;;5045558;28;20037;-87
2023/08/26 04:25:25;;;;;;;1081.00;961.83;;;14.20;99.90;;;;;;5029065;28;20221;-87
2023/08/26 04:27:51;;;;;;;1034.05;925.58;;;14.30;99.90;;;;;;5028453;28;20431;-87
2023/08/26 04:30:17;;;;;;;1068.97;954.63;;;14.30;99.90;;;;;;5032633;28;20503;-88
2023/08/26 04:32:44;;;;;;;1142.88;994.03;;;14.30;99.90;;;;;;5032618;28;20053;-87
2023/08/26 04:35:10;;;;;;;1077.78;962.38;;;14.40;99.90;;;;;;5048807;28;20504;-87
2023/08/26 04:37:37;;;;;;;1013.47;910.45;;;14.30;99.90;;;;;;5049176;28;20159;-87
2023/08/26 04:40:12;;;;;;;1029.03;925.13;;;14.40;99.90;;;;;;5047501;28;20499;-87
2023/08/26 04:42:38;;;;;;;1029.72;925.42;;;14.40;99.90;;;;;;5032084;28;20041;-86
2023/08/26 04:45:05;;;;;;;1072.10;962.08;;;14.40;99.90;;;;;;5048926;28;20563;-87
2023/08/26 04:47:30;;;;;;;1038.07;932.15;;;14.40;99.90;;;;;;5018903;28;20053;-87
2023/08/26 04:49:57;;;;;;;1056.93;949.00;;;14.40;99.90;;;;;;5048561;28;20064;-87
2023/08/26 04:52:22;;;;;;;1042.07;935.00;;;14.40;99.90;;;;;;5019765;28;20045;-87
2023/08/26 04:54:48;;;;;;;1089.80;965.22;;;14.40;99.90;;;;;;5048623;28;20060;-87
2023/08/26 04:57:14;;;;;;;1098.75;980.40;;;14.40;99.90;;;;;;5048580;28;20338;-87
2023/08/26 04:59:39;;;;;;;1072.88;956.13;;;14.50;99.90;;;;;;5031610;28;20045;-87
2023/08/26 05:02:07;;;;;;;1085.03;965.97;;;14.50;99.90;;;;;;5048050;28;20515;-87
2023/08/26 05:04:33;;;;;;;1092.38;963.22;;;14.50;99.90;;;;;;5031902;28;20041;-87
2023/08/26 05:06:59;;;;;;;1049.47;936.15;;;14.50;99.90;;;;;;5048158;28;20063;-87
2023/08/26 05:09:25;;;;;;;1094.18;966.25;;;14.50;99.90;;;;;;5030992;28;20052;-87
2023/08/26 05:11:51;;;;;;;1087.53;968.08;;;14.60;99.90;;;;;;5048305;28;20470;-87
2023/08/26 05:14:16;;;;;;;1075.20;955.42;;;14.60;99.90;;;;;;5031440;28;20072;-87
2023/08/26 05:16:42;;;;;;;1023.75;919.05;;;14.70;99.90;;;;;;5047386;28;20044;-87
2023/08/26 05:19:08;;;;;;;1016.33;911.50;;;14.80;99.90;;;;;;5048431;28;20064;-87
2023/08/26 05:21:33;;;;;;;975.80;878.28;;;14.80;99.90;;;;;;5048178;28;20484;-87
2023/08/26 05:24:03;;;;;;;1044.82;938.25;;;14.80;99.90;;;;;;5047526;28;20049;-88
2023/08/26 05:26:28;;;;;;;978.45;884.22;;;14.80;99.90;;;;;;5034965;28;20116;-86
2023/08/26 05:28:54;;;;;;;1083.80;971.00;;;14.90;99.90;;;;;;5047609;28;20472;-87
2023/08/26 05:31:20;;;;;;;1082.38;967.72;;;14.80;99.90;;;;;;5047470;28;20037;-87
2023/08/26 05:33:45;;;;;;;1002.67;905.33;;;14.80;99.90;;;;;;5031301;28;20139;-87
2023/08/26 05:36:11;;;;;;;999.55;902.40;;;14.80;99.90;;;;;;5049115;28;20071;-87
2023/08/26 05:38:43;;;;;;;995.00;898.40;;;14.80;99.90;;;;;;5047589;28;20219;-87
2023/08/26 05:41:09;;;;;;;944.22;855.58;;;14.80;99.90;;;;;;5018142;28;20138;-87
2023/08/26 05:43:34;;;;;;;947.03;857.03;;;14.90;99.90;;;;;;5030308;28;20041;-88
2023/08/26 05:46:00;;;;;;;957.35;864.80;;;14.90;99.90;;;;;;5047929;28;20492;-88
2023/08/26 05:48:26;;;;;;;927.25;840.10;;;14.90;99.90;;;;;;5031284;28;20072;-88
2023/08/26 05:50:51;;;;;;;922.35;836.03;;;15.00;99.90;;;;;;5044461;28;20060;-88
2023/08/26 05:53:17;;;;;;;915.58;829.97;;;15.00;99.90;;;;;;5031644;28;20080;-88
2023/08/26 05:55:44;;;;;;;844.53;770.83;;;15.00;99.90;;;;;;5046490;28;20076;-88
2023/08/26 05:58:09;;;;;;;977.45;882.50;;;15.00;99.90;;;;;;5030394;28;20044;-87
2023/08/26 06:00:35;;;;;;;930.53;843.25;;;15.10;99.90;;;;;;5048567;28;20045;-87
2023/08/26 06:03:01;;;;;;;828.63;754.78;;;15.10;99.90;;;;;;5048021;28;20143;-87
2023/08/26 06:05:27;;;;;;;877.53;796.33;;;15.10;99.90;;;;;;5046859;28;20095;-87
2023/08/26 06:07:53;;;;;;;871.10;789.15;;;15.20;99.90;;;;;;5046328;28;20037;-87
2023/08/26 06:10:19;;;;;;;867.78;786.90;;;15.20;99.90;;;;;;5030499;28;20052;-87
2023/08/26 06:12:45;;;;;;;889.60;804.83;;;15.20;99.90;;;;;;5046079;28;20130;-87
2023/08/26 06:15:10;;;;;;;827.22;753.47;;;15.20;99.90;;;;;;5031159;28;20052;-87
2023/08/26 06:17:37;;;;;;;839.70;763.75;;;15.20;99.90;;;;;;5030958;28;20051;-88
2023/08/26 06:20:03;;;;;;;856.35;778.33;;;15.30;99.90;;;;;;5046646;28;20399;-87
2023/08/26 06:22:29;;;;;;;889.47;803.72;;;15.30;99.90;;;;;;5047508;28;20098;-88
2023/08/26 06:24:55;;;;;;;817.00;741.63;;;15.40;99.90;;;;;;5047318;28;20052;-87
2023/08/26 06:27:23;;;;;;;837.92;759.92;;;15.40;99.90;;;;;;5030120;28;20053;-87
2023/08/26 06:29:58;;;;;;;862.95;787.25;;;15.30;99.90;;;;;;5030681;28;20045;-89
2023/08/26 06:32:24;;;;;;;888.53;811.83;;;15.30;99.90;;;;;;5043425;28;20079;-90
2023/08/26 06:34:53;;;;;;;1009.08;908.47;;;15.20;99.90;;;;;;5031181;28;20044;-90
2023/08/26 06:37:25;;;;;;;1072.40;959.15;;;15.20;99.90;;;;;;5045317;28;20119;-91
2023/08/26 06:39:59;;;;;;;1043.35;938.42;;;15.20;99.90;;;;;;5045307;28;20041;-89
2023/08/26 06:42:25;;;;;;;1051.30;943.08;;;15.20;99.90;;;;;;5047431;28;20076;-87
2023/08/26 06:44:51;;;;;;;1077.68;965.45;;;15.20;99.90;;;;;;5029554;28;20084;-87
2023/08/26 06:47:17;;;;;;;1081.93;964.83;;;15.20;99.90;;;;;;5043121;28;20122;-87
2023/08/26 06:49:43;;;;;;;1072.53;957.60;;;15.20;99.90;;;;;;5026574;28;20056;-86
2023/08/26 06:52:08;;;;;;;1063.18;947.63;;;15.20;99.90;;;;;;5044316;28;20033;-87
2023/08/26 06:54:35;;;;;;;1076.22;959.58;;;15.20;99.90;;;;;;5028000;28;20488;-88
2023/08/26 06:57:01;;;;;;;1052.95;939.10;;;15.20;99.90;;;;;;5043423;28;20048;-87
2023/08/26 06:59:27;;;;;;;957.40;863.03;;;15.20;99.90;;;;;;5028785;28;20056;-87
2023/08/26 07:01:52;;;;;;;971.28;875.55;;;15.20;99.90;;;;;;5043539;28;20053;-87
2023/08/26 07:04:18;;;;;;;988.58;887.92;;;15.20;99.90;;;;;;5030105;28;20044;-88
2023/08/26 07:06:45;;;;;;;1044.78;930.53;;;15.20;99.90;;;;;;5029651;28;20044;-87
2023/08/26 07:09:22;;;;;;;1017.83;909.75;;;15.20;99.90;;;;;;5028869;28;20049;-87
2023/08/26 07:11:48;;;;;;;993.63;889.92;;;15.20;99.90;;;;;;5043842;28;20385;-87
2023/08/26 07:14:14;;;;;;;997.45;893.42;;;15.20;99.90;;;;;;5040368;28;20124;-87
2023/08/26 07:16:39;;;;;;;1020.75;910.70;;;15.30;99.90;;;;;;5034181;28;20037;-88
2023/08/26 07:19:08;;;;;;;1034.28;921.30;;;15.30;99.90;;;;;;5046653;28;20045;-88
2023/08/26 07:21:34;;;;;;;1035.82;924.33;;;15.40;99.90;;;;;;5029178;28;20033;-87
2023/08/26 07:24:00;;;;;;;1028.43;918.83;;;15.50;99.90;;;;;;5029116;28;20060;-87
2023/08/26 07:26:25;;;;;;;906.58;818.05;;;15.60;99.90;;;;;;5029295;28;20376;-88
2023/08/26 07:28:53;;;;;;;933.78;842.60;;;15.70;99.90;;;;;;5031597;28;20312;-87
2023/08/26 07:31:18;;;;;;;979.05;877.17;;;15.80;99.90;;;;;;5045369;28;20343;-87
2023/08/26 07:33:45;;;;;;;989.03;887.28;;;15.90;99.90;;;;;;5016299;28;20519;-86
2023/08/26 07:36:10;;;;;;;895.08;809.97;;;16.00;99.90;;;;;;5027510;28;20049;-87
2023/08/26 07:38:37;;;;;;;850.85;769.35;;;16.00;99.90;;;;;;5021129;28;20060;-87
2023/08/26 07:41:03;;;;;;;788.72;715.13;;;16.10;99.90;;;;;;5041604;28;20117;-87
2023/08/26 07:43:30;;;;;;;826.05;750.20;;;16.20;99.90;;;;;;5029485;28;20176;-87
2023/08/26 07:45:56;;;;;;;905.10;818.45;;;16.20;99.90;;;;;;5028450;28;20037;-86
2023/08/26 07:48:22;;;;;;;1033.57;926.67;;;16.20;99.90;;;;;;5028272;28;20053;-86
2023/08/26 07:50:48;;;;;;;989.47;893.72;;;16.30;99.90;;;;;;5024437;28;20480;-87
2023/08/26 07:53:14;;;;;;;894.50;814.08;;;16.40;99.90;;;;;;5032094;28;20068;-86
2023/08/26 07:55:45;;;;;;;881.22;803.00;;;16.60;99.90;;;;;;5042065;28;20130;-87
2023/08/26 07:58:11;;;;;;;1010.05;913.70;;;16.70;99.90;;;;;;5033310;28;20489;-87
2023/08/26 08:00:46;;;;;;;968.28;879.33;;;16.90;99.90;;;;;;5030302;28;20138;-86
2023/08/26 08:03:12;;;;;;;1009.75;908.13;;;17.00;99.90;;;;;;5017318;28;20076;-86
2023/08/26 08:05:37;;;;;;;912.15;825.80;;;17.10;99.90;;;;;;5031560;28;20083;-86
2023/08/26 08:08:03;;;;;;;904.65;820.72;;;17.20;99.90;;;;;;5032224;28;20045;-86
2023/08/26 08:10:29;;;;;;;846.45;769.33;;;17.40;99.90;;;;;;5045345;28;20041;-86
2023/08/26 08:12:55;;;;;;;806.58;738.78;;;17.50;99.90;;;;;;5015822;28;20044;-85
2023/08/26 08:15:20;;;;;;;638.83;582.65;;;17.50;99.90;;;;;;5049200;28;20059;-85
2023/08/26 08:17:46;;;;;;;629.47;573.67;;;17.40;99.90;;;;;;5032256;28;20076;-84
2023/08/26 08:20:12;;;;;;;689.97;627.47;;;17.50;99.90;;;;;;5046276;28;20033;-85
2023/08/26 08:22:43;;;;;;;628.00;569.13;;;17.60;99.90;;;;;;5030451;28;20040;-85
2023/08/26 08:25:09;;;;;;;818.75;749.72;;;17.60;99.90;;;;;;5046080;28;20040;-85
2023/08/26 08:27:39;;;;;;;690.88;629.45;;;17.80;99.90;;;;;;5047038;28;20080;-86
2023/08/26 08:30:06;;;;;;;541.65;491.20;;;17.80;99.90;;;;;;5030350;28;20052;-85
2023/08/26 08:32:33;;;;;;;599.30;545.45;;;17.90;99.90;;;;;;5030313;28;20037;-86
2023/08/26 08:34:59;;;;;;;521.35;474.15;;;17.90;99.90;;;;;;5031637;28;20048;-86
2023/08/26 08:37:25;;;;;;;475.95;432.40;;;18.00;99.90;;;;;;5050828;28;20041;-86
2023/08/26 08:39:51;;;;;;;450.95;410.08;;;18.20;99.90;;;;;;5047259;28;20415;-85
2023/08/26 08:42:18;;;;;;;491.20;445.88;;;18.30;99.90;;;;;;5032211;28;20504;-85
2023/08/26 08:44:46;;;;;;;600.08;547.10;;;18.40;99.90;;;;;;5048141;28;20060;-86
2023/08/26 08:47:12;;;;;;;416.10;380.75;;;18.50;99.90;;;;;;5047793;28;20502;-85
2023/08/26 08:49:38;;;;;;;528.85;482.90;;;18.50;99.90;;;;;;5031488;28;20060;-85
2023/08/26 08:52:05;;;;;;;564.10;514.60;;;18.40;99.90;;;;;;5032382;28;20199;-86
2023/08/26 08:54:32;;;;;;;405.65;367.92;;;18.30;99.90;;;;;;5030929;28;20037;-85
2023/08/26 08:56:59;;;;;;;333.70;302.95;;;18.20;99.90;;;;;;5048085;28;20048;-85
2023/08/26 08:59:29;;;;;;;342.90;311.52;;;18.10;99.90;;;;;;5031139;28;20499;-86
2023/08/26 09:01:58;;;;;;;306.85;279.10;;;18.00;99.90;;;;;;5026945;28;20053;-84
2023/08/26 09:04:28;;;;;;;516.63;469.98;;;17.80;99.90;;;;;;5023671;28;20044;-86
2023/08/26 09:06:54;;;;;;;647.60;590.03;;;17.80;99.90;;;;;;5047967;28;20134;-85
2023/08/26 09:09:21;;;;;;;718.40;654.15;;;17.80;99.90;;;;;;5046767;28;20045;-85
2023/08/26 09:11:50;;;;;;;475.17;433.67;;;17.80;99.90;;;;;;5047633;28;20049;-85
2023/08/26 09:14:16;;;;;;;503.63;459.10;;;17.90;99.90;;;;;;5047228;28;20372;-86
2023/08/26 09:16:45;;;;;;;488.30;446.15;;;18.00;99.90;;;;;;5030217;28;20033;-84
2023/08/26 09:19:12;;;;;;;500.63;457.10;;;18.20;99.90;;;;;;5047836;28;20072;-85
2023/08/26 09:21:42;;;;;;;529.17;483.67;;;18.30;99.90;;;;;;5030313;28;20394;-85
2023/08/26 09:24:15;;;;;;;435.02;398.98;;;18.40;99.90;;;;;;5030109;28;20044;-84
2023/08/26 09:26:58;;;;;;;514.83;469.48;;;18.60;99.90;;;;;;5030648;28;20235;-84
2023/08/26 09:29:25;;;;;;;477.08;434.13;;;18.80;99.90;;;;;;5030776;28;20049;-83
2023/08/26 09:31:55;;;;;;;436.95;396.58;;;18.90;99.90;;;;;;5048420;28;20549;-87
2023/08/26 09:34:29;;;;;;;327.48;297.30;;;19.00;99.90;;;;;;5033776;28;20136;-89
2023/08/26 09:36:56;;;;;;;393.95;357.20;;;19.10;99.90;;;;;;5026169;28;20394;-89
2023/08/26 09:39:28;;;;;;;375.83;341.65;;;19.00;99.90;;;;;;5023961;28;20041;-84
2023/08/26 09:41:58;;;;;;;293.80;265.80;;;19.20;99.90;;;;;;5031937;28;20045;-83
2023/08/26 09:44:24;;;;;;;380.33;345.77;;;19.30;99.90;;;;;;5031440;28;20110;-89
2023/08/26 09:46:50;;;;;;;472.02;428.30;;;19.50;99.90;;;;;;5029968;28;20364;-85
2023/08/26 09:49:18;;;;;;;346.42;316.67;;;19.90;99.90;;;;;;5047716;28;20099;-86
2023/08/26 09:51:52;;;;;;;359.83;328.92;;;20.10;99.90;;;;;;5028368;28;20433;-87
2023/08/26 09:54:19;;;;;;;365.45;332.88;;;20.30;99.90;;;;;;5039748;28;20552;-89
2023/08/26 10:04:12;;;;;;;574.92;525.72;;;20.40;99.90;;;;;;5086360;28;20152;-92
2023/08/26 10:07:11;;;;;;;597.90;543.63;;;20.50;99.90;;;;;;5064892;28;20036;-94
2023/08/26 10:09:55;;;;;;;689.08;633.33;;;20.60;99.90;;;;;;5061710;28;20047;-91
2023/08/26 10:12:29;;;;;;;712.78;654.22;;;20.70;99.90;;;;;;5056815;28;20420;-90
2023/08/26 10:14:59;;;;;;;621.28;567.95;;;20.70;99.90;;;;;;5073124;28;20047;-93
2023/08/26 10:17:29;;;;;;;654.92;597.53;;;20.60;99.90;;;;;;5046822;28;20076;-88
2023/08/26 10:19:56;;;;;;;578.05;528.65;;;20.40;99.90;;;;;;5047585;28;20041;-90
2023/08/26 10:22:31;;;;;;;579.35;528.53;;;20.50;99.90;;;;;;5073981;28;20036;-93
2023/08/26 10:24:57;;;;;;;560.55;513.58;;;20.20;99.90;;;;;;5065362;28;20101;-91
2023/08/26 10:27:23;;;;;;;479.33;438.65;;;20.00;99.90;;;;;;5054150;28;20052;-91
2023/08/26 10:30:10;;;;;;;543.17;499.13;;;19.60;99.90;;;;;;5054937;28;20078;-91
2023/08/26 10:32:58;;;;;;;527.88;488.13;;;19.30;99.90;;;;;;5054284;28;20127;-92
2023/08/26 10:35:25;;;;;;;423.17;392.23;;;18.70;99.90;;;;;;5069286;28;20499;-84
2023/08/26 10:38:10;;;;;;;503.77;465.13;;;18.20;99.90;;;;;;5088443;28;20382;-85
2023/08/26 10:40:36;;;;;;;684.13;629.40;;;17.70;99.90;;;;;;5059856;28;20047;-85
2023/08/26 10:43:08;;;;;;;782.47;717.50;;;17.20;99.90;;;;;;5082961;28;20479;-86
2023/08/26 10:45:48;;;;;;;797.55;730.58;;;16.80;99.90;;;;;;5080426;28;20068;-87
2023/08/26 10:48:14;;;;;;;947.55;857.45;;;16.40;99.90;;;;;;5055900;28;20047;-89
2023/08/26 10:51:00;;;;;;;582.25;534.72;;;16.20;99.90;;;;;;5055652;28;20135;-89
2023/08/26 10:53:26;;;;;;;798.17;722.67;;;16.00;99.90;;;;;;5073563;28;20071;-91
2023/08/26 10:56:11;;;;;;;888.58;803.25;;;16.00;99.90;;;;;;5056280;28;20044;-91
2023/08/26 10:58:46;;;;;;;876.05;789.25;;;16.10;99.90;;;;;;5053974;28;20517;-90
2023/08/26 11:01:15;;;;;;;789.92;713.00;;;16.20;99.90;;;;;;5056120;28;20203;-89
2023/08/26 11:03:48;;;;;;;914.10;824.35;;;16.30;99.90;;;;;;5054472;28;20052;-90
2023/08/26 11:06:22;;;;;;;948.38;855.33;;;16.50;99.90;;;;;;5059594;28;20123;-90
2023/08/26 11:08:56;;;;;;;919.30;834.67;;;16.70;99.90;;;;;;5044515;28;20048;-89
2023/08/26 11:11:22;;;;;;;854.92;772.45;;;17.00;99.90;;;;;;5055844;28;20107;-91
2023/08/26 11:13:48;;;;;;;660.45;596.13;;;17.30;99.90;;;;;;5072316;28;20044;-88
2023/08/26 11:16:16;;;;;;;934.17;843.00;;;17.60;99.90;;;;;;5056182;28;20379;-89
2023/08/26 11:18:43;;;;;;;592.40;535.38;;;18.00;99.90;;;;;;5055470;28;20458;-88
2023/08/26 11:21:09;;;;;;;634.85;575.33;;;18.20;99.90;;;;;;5070343;28;20044;-88
2023/08/26 11:23:35;;;;;;;648.92;591.78;;;18.30;99.90;;;;;;5072030;28;20055;-87
2023/08/26 11:26:04;;;;;;;579.75;527.30;;;18.30;99.90;;;;;;5070967;28;20089;-87
2023/08/26 11:28:31;;;;;;;710.60;645.13;;;18.30;99.90;;;;;;5053389;28;20514;-88
2023/08/26 11:30:57;;;;;;;365.60;333.58;;;18.40;99.90;;;;;;5071407;28;20040;-87
2023/08/26 11:33:26;;;;;;;339.35;309.85;;;18.40;99.90;;;;;;5054674;28;20091;-87
2023/08/26 11:35:52;;;;;;;411.35;374.92;;;18.40;99.90;;;;;;5053713;28;20113;-88
2023/08/26 11:38:18;;;;;;;457.27;415.38;;;18.40;99.90;;;;;;5071579;28;20071;-87
2023/08/26 11:40:45;;;;;;;583.90;531.78;;;18.30;99.90;;;;;;5070469;28;20482;-88
2023/08/26 11:43:12;;;;;;;343.35;313.00;;;18.40;99.90;;;;;;5041733;28;20076;-89
2023/08/26 11:45:39;;;;;;;392.92;353.27;;;18.50;99.90;;;;;;5056342;28;20035;-89
2023/08/26 11:48:07;;;;;;;303.05;274.02;;;18.70;99.90;;;;;;5074672;28;20052;-89
2023/08/26 11:50:34;;;;;;;303.08;275.60;;;18.80;99.90;;;;;;5057654;28;20039;-89
2023/08/26 11:53:04;;;;;;;263.17;243.23;;;19.00;99.90;;;;;;5056437;28;20127;-88
2023/08/26 11:55:35;;;;;;;573.80;526.30;;;19.20;99.90;;;;;;5051269;28;20072;-89
2023/08/26 11:58:03;;;;;;;569.72;523.53;;;19.20;99.90;;;;;;5050478;28;20130;-89
2023/08/26 12:00:29;;;;;;;589.35;540.42;;;19.10;99.90;;;;;;5054392;28;20051;-89
2023/08/26 12:03:06;;;;;;;607.25;557.25;;;19.00;99.90;;;;;;5079816;28;20368;-89
2023/08/26 12:05:48;;;;;;;641.70;586.95;;;19.00;99.90;;;;;;5069022;28;20032;-91
2023/08/26 12:08:19;;;;;;;639.45;585.38;;;18.90;99.90;;;;;;5052459;28;20043;-90
2023/08/26 12:10:52;;;;;;;658.42;601.05;;;18.80;99.90;;;;;;5054877;28;20052;-90
2023/08/26 12:13:19;;;;;;;701.30;640.65;;;18.70;99.90;;;;;;5057672;28;20115;-90
2023/08/26 12:15:45;;;;;;;554.85;505.08;;;18.60;99.90;;;;;;5056526;28;20090;-89